Meath Environmental Platform

Observations for Trim Patrick St

Time AQI Temp °C Hum % Pres Pa CO μg/m³ H₂S μg/m³ NO μg/m³ NO₂ μg/m³ O₃ μg/m³ SO₂ μg/m³ PM1 μg/m³ PM2.5 μg/m³ PM10 μg/m³
Friday 31 July 2026
10:23 1 25.6 38 68,906 0 0 2 1.89 66.02 6.51 3.71 8.75 9.63
10:22 1 25.6 41 68,918 0 0 1.78 5.88 69.35 7.87 3.71 9.34 10.28
10:21 1 25.6 42 68,934 0 0 1.69 1.18 59.23 7.58 2 7.69 8.45
10:20 1 25.6 42 68,924 0 0 1.73 4.27 69.61 7.92 3.71 9.28 10.21
10:19 1 25.6 39 68,910 0 0 1.91 4.73 70.13 6.76 3.71 9.48 10.43
10:18 1 25.7 40 68,894 0 0 1.84 2.91 63.06 6.7 3.71 9.38 10.32
10:16 1 25.9 40 68,876 0 0 1.72 2.08 68.11 7.96 7.14 14.11 15.52
10:13 1 25.9 43 68,875 0 0 1.57 5.64 62.71 6.67 4.57 10.77 11.85
10:11 1 25.8 44 68,902 0 0 1.6 5.67 58.92 7.66 3.71 9.12 10.03
10:10 1 25.8 43 68,906 0 0 1.65 6.97 66.24 6.61 2.86 8.4 9.24
10:09 1 25.7 43 68,910 0 0 1.68 5.9 57.37 6.86 2.86 7.62 8.38
10:08 1 25.7 42 68,914 0 0 1.77 5.09 66.53 6.52 3.71 10.07 11.07
10:07 1 25.7 41 68,918 0 0 1.79 4.91 34.03 6.19 3.71 9.31 10.24
10:06 1 25.6 41 68,924 0 0 1.82 7.54 67.98 6.62 2.86 8.53 9.38
10:05 1 25.6 43 68,904 0 0 1.74 6.08 61.76 6.54 3.71 9.18 10.1
10:04 1 25.5 44 68,906 0 0 1.76 8.01 66.92 7.45 2.86 8.36 9.19
10:03 1 25.4 42 68,910 0 0 1.85 6.94 65.97 5.72 3.71 10.03 11.03
10:02 1 25.4 42 68,886 0 0 1.87 4.56 55.54 6.27 3.71 8.51 9.36
10:01 1 25.3 42 68,888 0 0 1.91 6 53.34 6.7 3.71 9.29 10.22
10:00 1 25.3 42 68,886 0 0 1.86 2.18 62.55 6.92 2.86 8.45 9.3